Time;durP1;ratioP1;P1;durP2;ratioP2;P2;SDS_P1;SDS_P2;PMS_P1;PMS_P2;Temp;Humidity;BMP_temperature;BMP_pressure;BME280_temperature;BME280_humidity;BME280_pressure;Samples;Min_cycle;Max_cycle;Signal;HPM_P1;HPM_P2
2022/10/06 00:01:17;;;;;;;10.70;7.80;;;;;;;4.79;100.00;98617.13;110351;1244;59734;-78
2022/10/06 00:03:46;;;;;;;11.10;8.10;;;;;;;4.74;100.00;98616.92;110472;1244;59722;-76
2022/10/06 00:06:17;;;;;;;15.10;9.50;;;;;;;4.66;100.00;98616.15;110230;1246;69823;-76
2022/10/06 00:08:47;;;;;;;16.80;12.00;;;;;;;4.59;100.00;98622.55;110313;1246;68618;-77
2022/10/06 00:11:16;;;;;;;14.40;9.50;;;;;;;4.51;100.00;98617.44;110394;1247;69513;-77
2022/10/06 00:13:44;;;;;;;14.80;10.80;;;;;;;4.44;99.89;98618.66;110469;1246;59744;-78
2022/10/06 00:16:16;;;;;;;13.30;10.30;;;;;;;4.39;99.51;98612.25;110541;1245;60603;-76
2022/10/06 00:18:46;;;;;;;14.10;11.20;;;;;;;4.34;99.42;98607.92;110224;1247;71415;-76
2022/10/06 00:21:14;;;;;;;15.10;11.10;;;;;;;4.28;98.81;98606.88;110350;1247;68603;-77
2022/10/06 00:23:43;;;;;;;13.80;9.60;;;;;;;4.24;98.61;98604.92;110457;1247;68640;-77
2022/10/06 00:26:15;;;;;;;12.90;8.40;;;;;;;4.20;98.71;98599.17;110381;1244;59692;-76
2022/10/06 00:28:46;;;;;;;13.10;8.50;;;;;;;4.19;98.65;98601.63;110362;1247;59747;-77
2022/10/06 00:31:18;;;;;;;13.70;11.20;;;;;;;4.19;99.82;98601.62;110283;1244;70779;-77
2022/10/06 00:33:48;;;;;;;12.70;9.80;;;;;;;4.19;100.00;98598.85;110440;1247;68600;-77
2022/10/06 00:36:16;;;;;;;12.40;8.90;;;;;;;4.19;100.00;98597.13;110246;1247;69516;-76
2022/10/06 00:38:46;;;;;;;14.00;10.30;;;;;;;4.19;100.00;98594.71;110300;1247;59676;-77
2022/10/06 00:41:17;;;;;;;12.30;9.00;;;;;;;4.20;100.00;98595.73;110432;1246;59682;-77
2022/10/06 00:43:46;;;;;;;13.10;8.80;;;;;;;4.21;100.00;98593.80;110570;1246;70679;-76
2022/10/06 00:46:27;;;;;;;;;;;;;;;4.22;100.00;98591.54;111033;1245;69308;-76
2022/10/06 00:49:11;;;;;;;10.80;7.70;;;;;;;4.20;100.00;98593.64;110301;1244;69396;-77
2022/10/06 00:51:44;;;;;;;10.60;6.80;;;;;;;4.20;100.00;98589.86;110464;1244;59760;-75
2022/10/06 00:54:13;;;;;;;11.00;8.40;;;;;;;4.18;100.00;98583.02;110533;1245;59657;-76
2022/10/06 00:56:41;;;;;;;11.00;7.70;;;;;;;4.18;100.00;98582.86;110506;1247;71969;-76
2022/10/06 00:59:12;;;;;;;10.40;6.50;;;;;;;4.15;100.00;98580.85;110329;1246;68602;-77
2022/10/06 01:01:45;;;;;;;11.30;8.30;;;;;;;4.14;100.00;98581.06;110486;1247;69406;-79
2022/10/06 01:04:16;;;;;;;12.80;8.40;;;;;;;4.13;100.00;98577.47;110645;1247;59695;-79
2022/10/06 01:06:49;;;;;;;;;;;;;;;4.13;100.00;98576.23;110519;1244;59676;-78
2022/10/06 01:09:20;;;;;;;14.10;8.00;;;;;;;4.13;100.00;98577.98;110454;1244;70786;-79
2022/10/06 01:11:52;;;;;;;12.90;8.90;;;;;;;4.14;100.00;98575.72;110539;1244;68881;-79
2022/10/06 01:14:25;;;;;;;12.00;8.40;;;;;;;4.13;100.00;98572.44;110517;1244;69567;-79
2022/10/06 01:17:13;;;;;;;12.00;6.60;;;;;;;4.11;100.00;98571.14;110527;1247;59761;-79
2022/10/06 01:19:58;;;;;;;11.60;8.20;;;;;;;4.07;99.70;98572.95;110455;1247;59740;-79
2022/10/06 01:22:38;;;;;;;11.90;8.40;;;;;;;4.05;100.00;98569.91;110332;1247;70504;-79
2022/10/06 01:25:09;;;;;;;16.40;10.90;;;;;;;4.04;100.00;98572.85;110436;1244;69386;-79
2022/10/06 01:27:41;;;;;;;12.90;10.20;;;;;;;4.06;100.00;98571.96;110480;1245;68867;-79
2022/10/06 01:30:15;;;;;;;11.50;8.20;;;;;;;4.06;100.00;98574.19;110545;1246;59744;-77
2022/10/06 01:32:44;;;;;;;11.80;8.20;;;;;;;4.06;100.00;98574.20;110330;1246;59625;-79
2022/10/06 01:35:13;;;;;;;9.90;7.20;;;;;;;4.05;100.00;98570.08;110502;1244;70756;-79
2022/10/06 01:37:41;;;;;;;9.40;7.30;;;;;;;4.04;100.00;98565.27;110482;1244;68448;-79
2022/10/06 01:40:09;;;;;;;7.70;6.40;;;;;;;4.03;100.00;98561.52;110476;1244;67476;-78
2022/10/06 01:42:37;;;;;;;10.10;7.30;;;;;;;4.02;100.00;98558.61;110495;1244;59707;-78
2022/10/06 01:45:07;;;;;;;12.10;8.30;;;;;;;4.01;100.00;98559.50;110491;1244;60110;-80
2022/10/06 01:47:35;;;;;;;11.90;7.50;;;;;;;4.00;100.00;98558.13;110511;1244;70633;-78
2022/10/06 01:50:06;;;;;;;10.30;7.10;;;;;;;3.99;100.00;98560.07;110875;1245;68577;-77
2022/10/06 01:52:36;;;;;;;9.30;7.50;;;;;;;3.98;100.00;98567.85;110646;1245;69367;-78
2022/10/06 01:55:05;;;;;;;7.70;6.90;;;;;;;3.97;100.00;98566.68;110455;1244;59747;-77
2022/10/06 01:57:38;;;;;;;;;;;;;;;3.95;100.00;98567.08;110419;1246;59655;-77
2022/10/06 02:00:09;;;;;;;8.70;6.50;;;;;;;3.94;100.00;98570.04;110401;1246;71460;-77
2022/10/06 02:02:41;;;;;;;12.30;7.80;;;;;;;3.93;100.00;98570.41;110427;1246;68570;-77
2022/10/06 02:05:10;;;;;;;9.60;7.20;;;;;;;3.92;99.71;98569.59;110617;1244;68569;-77
2022/10/06 02:07:41;;;;;;;12.00;8.50;;;;;;;3.94;98.78;98573.14;110462;1245;59721;-77
2022/10/06 02:10:13;;;;;;;16.30;9.90;;;;;;;3.95;99.39;98570.90;110431;1244;59751;-77
2022/10/06 02:12:42;;;;;;;9.80;7.20;;;;;;;3.96;99.90;98573.63;110441;1244;70698;-77
2022/10/06 02:15:10;;;;;;;10.40;7.20;;;;;;;3.94;98.22;98572.96;110489;1244;69196;-77
2022/10/06 02:17:39;;;;;;;10.80;8.10;;;;;;;3.91;97.94;98573.05;110224;1247;68415;-77
2022/10/06 02:20:08;;;;;;;11.40;7.90;;;;;;;3.86;97.80;98573.88;110467;1244;59743;-79
2022/10/06 02:22:39;;;;;;;15.60;10.80;;;;;;;3.80;97.93;98573.01;110227;1244;59703;-77
2022/10/06 02:25:07;;;;;;;13.10;10.00;;;;;;;3.75;99.63;98575.21;110261;1245;71431;-77
2022/10/06 02:27:37;;;;;;;17.50;10.30;;;;;;;3.71;99.92;98576.55;110292;1247;69380;-79
2022/10/06 02:30:07;;;;;;;16.20;11.20;;;;;;;3.66;100.00;98574.77;110271;1246;69362;-75
2022/10/06 02:32:38;;;;;;;14.10;10.20;;;;;;;3.63;100.00;98571.59;110215;1247;59760;-77
2022/10/06 02:35:09;;;;;;;16.20;10.80;;;;;;;3.60;100.00;98574.25;110422;1247;59805;-76
2022/10/06 02:37:37;;;;;;;12.10;9.00;;;;;;;3.56;100.00;98571.94;110259;1245;71475;-79
2022/10/06 02:40:07;;;;;;;11.50;8.40;;;;;;;3.53;100.00;98571.13;110254;1244;69267;-78
2022/10/06 02:42:37;;;;;;;9.00;7.20;;;;;;;3.51;100.00;98575.15;110539;1247;69509;-76
2022/10/06 02:45:07;;;;;;;10.20;7.50;;;;;;;3.48;100.00;98571.80;110357;1244;59717;-77
2022/10/06 02:47:36;;;;;;;13.70;9.30;;;;;;;3.47;100.00;98570.61;110278;1247;59760;-78
2022/10/06 02:50:07;;;;;;;13.40;8.80;;;;;;;3.44;100.00;98566.04;110308;1247;71583;-76
2022/10/06 02:52:39;;;;;;;11.00;8.30;;;;;;;3.42;100.00;98566.10;110134;1247;69343;-76
2022/10/06 02:55:09;;;;;;;13.80;10.50;;;;;;;3.38;100.00;98564.64;110333;1245;69448;-76
2022/10/06 02:57:38;;;;;;;12.30;9.00;;;;;;;3.36;100.00;98566.75;110865;1247;59593;-76
2022/10/06 03:00:07;;;;;;;13.40;9.50;;;;;;;3.33;100.00;98564.59;110803;1247;59758;-76
2022/10/06 03:02:36;;;;;;;16.50;11.60;;;;;;;3.31;100.00;98570.83;110447;1246;71550;-78
2022/10/06 03:05:04;;;;;;;13.30;9.00;;;;;;;3.30;100.00;98568.13;110634;1244;69199;-78
2022/10/06 03:07:33;;;;;;;13.10;9.70;;;;;;;3.28;100.00;98567.30;110639;1244;69565;-78
2022/10/06 03:10:03;;;;;;;12.70;8.70;;;;;;;3.24;100.00;98564.82;110274;1244;59696;-77
2022/10/06 03:12:33;;;;;;;12.10;9.20;;;;;;;3.20;100.00;98562.50;110393;1244;60047;-76
2022/10/06 03:15:02;;;;;;;16.00;11.00;;;;;;;3.18;100.00;98566.52;110403;1244;71398;-76
2022/10/06 03:17:31;;;;;;;14.60;10.60;;;;;;;3.14;100.00;98563.86;110459;1244;68246;-77
2022/10/06 03:19:59;;;;;;;15.90;10.00;;;;;;;3.11;100.00;98567.05;110565;1245;69303;-77
2022/10/06 03:22:27;;;;;;;14.10;9.60;;;;;;;3.08;100.00;98567.45;110357;1246;59652;-77
2022/10/06 03:24:57;;;;;;;14.40;9.30;;;;;;;3.05;100.00;98567.18;110740;1244;59759;-77
2022/10/06 03:27:26;;;;;;;14.40;9.70;;;;;;;3.03;100.00;98571.71;110601;1244;71595;-77
2022/10/06 03:29:58;;;;;;;14.70;9.70;;;;;;;3.00;100.00;98572.80;110683;1244;68544;-77
2022/10/06 03:32:27;;;;;;;14.30;10.00;;;;;;;2.97;100.00;98575.13;110543;1244;69244;-76
2022/10/06 03:34:55;;;;;;;14.70;9.30;;;;;;;2.93;100.00;98577.63;110311;1244;59762;-77
2022/10/06 03:37:23;;;;;;;13.60;9.20;;;;;;;2.90;100.00;98581.48;110506;1243;59744;-78
2022/10/06 03:39:50;;;;;;;11.10;7.80;;;;;;;2.89;100.00;98582.73;110542;1245;71623;-76
2022/10/06 03:42:18;;;;;;;12.40;9.50;;;;;;;2.88;100.00;98584.48;110257;1247;69275;-78
2022/10/06 03:44:46;;;;;;;13.60;10.00;;;;;;;2.86;100.00;98584.33;110616;1244;69434;-78
2022/10/06 03:47:14;;;;;;;17.40;11.70;;;;;;;2.86;100.00;98582.79;110497;1246;59769;-78
2022/10/06 03:49:44;;;;;;;16.60;10.00;;;;;;;2.84;100.00;98583.87;110434;1244;59649;-78
2022/10/06 03:52:13;;;;;;;14.80;10.20;;;;;;;2.82;100.00;98584.10;110434;1243;71112;-77
2022/10/06 03:54:41;;;;;;;17.90;11.80;;;;;;;2.79;100.00;98580.70;110411;1244;69278;-78
2022/10/06 03:57:11;;;;;;;15.90;10.50;;;;;;;2.77;100.00;98583.16;110378;1244;68707;-78
2022/10/06 03:59:40;;;;;;;14.00;9.90;;;;;;;2.74;100.00;98580.32;110426;1247;59702;-78
2022/10/06 04:02:10;;;;;;;13.70;10.20;;;;;;;2.70;100.00;98578.67;110450;1247;59712;-76
2022/10/06 04:04:37;;;;;;;13.70;9.90;;;;;;;2.67;100.00;98577.36;110619;1244;71759;-77
2022/10/06 04:07:10;;;;;;;13.80;11.10;;;;;;;2.64;100.00;98578.98;110600;1244;68446;-77
2022/10/06 04:09:38;;;;;;;16.00;12.40;;;;;;;2.61;100.00;98578.89;110522;1244;69525;-77
2022/10/06 04:12:06;;;;;;;16.00;12.80;;;;;;;2.58;100.00;98577.74;110600;1244;59694;-76
2022/10/06 04:14:36;;;;;;;17.40;13.10;;;;;;;2.57;100.00;98576.06;110393;1244;59752;-76
2022/10/06 04:17:05;;;;;;;17.10;13.10;;;;;;;2.56;100.00;98578.65;110410;1244;71485;-78
2022/10/06 04:19:38;;;;;;;15.60;11.90;;;;;;;2.55;100.00;98579.70;110409;1244;69674;-76
2022/10/06 04:22:08;;;;;;;16.60;10.90;;;;;;;2.53;100.00;98581.28;110268;1244;69031;-76
2022/10/06 04:24:36;;;;;;;12.90;8.80;;;;;;;2.52;100.00;98584.23;110431;1244;59757;-78
2022/10/06 04:30:08;;;;;;;15.30;11.50;;;;;;;2.50;100.00;98586.17;110585;1244;71412;-76
2022/10/06 04:32:37;;;;;;;24.50;15.50;;;;;;;2.51;100.00;98584.45;110477;1245;69993;-77
2022/10/06 04:35:16;;;;;;;26.90;20.10;;;;;;;2.51;100.00;98587.70;110485;1244;69392;-77
2022/10/06 04:38:04;;;;;;;;;;;;;;;2.51;100.00;98589.08;110647;1244;59780;-77
2022/10/06 04:40:33;;;;;;;28.70;20.50;;;;;;;2.50;100.00;98591.69;110454;1244;59752;-76
2022/10/06 04:43:01;;;;;;;35.20;20.00;;;;;;;2.53;100.00;98592.65;110241;1244;71608;-77
2022/10/06 04:45:33;;;;;;;29.70;19.40;;;;;;;2.58;100.00;98595.30;110628;1244;69493;-77
2022/10/06 04:48:01;;;;;;;27.70;16.80;;;;;;;2.62;100.00;98593.67;110263;1247;68524;-76
2022/10/06 04:50:30;;;;;;;25.50;17.90;;;;;;;2.66;100.00;98597.54;110326;1244;59739;-78
2022/10/06 04:53:08;;;;;;;22.90;15.90;;;;;;;2.72;100.00;98597.39;110324;1244;59697;-77
2022/10/06 04:55:37;;;;;;;20.10;13.70;;;;;;;2.76;100.00;98601.09;110454;1244;71634;-77
2022/10/06 04:58:05;;;;;;;20.30;13.60;;;;;;;2.78;100.00;98598.61;110379;1244;69325;-76
2022/10/06 05:00:34;;;;;;;21.10;13.90;;;;;;;2.82;100.00;98602.16;110342;1246;69399;-76
2022/10/06 05:03:03;;;;;;;21.00;12.30;;;;;;;2.85;100.00;98601.77;110506;1244;59740;-75
2022/10/06 05:05:31;;;;;;;25.00;14.20;;;;;;;2.88;100.00;98604.10;110255;1244;59695;-78
2022/10/06 05:07:59;;;;;;;19.10;11.70;;;;;;;2.91;100.00;98601.45;110277;1246;71603;-74
2022/10/06 05:10:43;;;;;;;16.10;10.30;;;;;;;2.94;100.00;98602.73;110153;1247;68575;-76
2022/10/06 05:13:12;;;;;;;23.70;14.50;;;;;;;3.00;100.00;98606.39;110750;1244;70018;-76
2022/10/06 05:15:40;;;;;;;21.10;13.00;;;;;;;3.05;100.00;98604.90;110480;1244;59717;-77
2022/10/06 05:18:08;;;;;;;21.00;14.00;;;;;;;3.09;100.00;98609.98;110477;1244;59675;-76
2022/10/06 05:20:36;;;;;;;27.10;15.30;;;;;;;3.09;100.00;98612.39;110568;1244;71442;-76
2022/10/06 05:23:06;;;;;;;22.50;13.20;;;;;;;3.08;100.00;98612.23;110251;1246;69746;-77
2022/10/06 05:25:34;;;;;;;14.00;8.50;;;;;;;3.09;100.00;98619.45;110252;1246;68649;-76
2022/10/06 05:28:01;;;;;;;23.70;13.70;;;;;;;3.17;100.00;98620.81;110471;1244;59703;-75
2022/10/06 05:30:28;;;;;;;12.60;8.10;;;;;;;3.25;100.00;98624.06;110418;1244;59671;-75
2022/10/06 05:32:56;;;;;;;18.90;12.00;;;;;;;3.40;100.00;98628.18;110373;1244;71559;-78
2022/10/06 05:35:25;;;;;;;15.80;9.50;;;;;;;3.57;100.00;98627.42;110449;1246;67702;-76
2022/10/06 05:37:53;;;;;;;15.70;9.80;;;;;;;3.75;100.00;98630.76;110135;1244;378674;-75
2022/10/06 05:40:22;;;;;;;16.30;10.50;;;;;;;3.93;100.00;98632.17;110265;1246;59752;-78
2022/10/06 05:42:50;;;;;;;18.80;12.40;;;;;;;4.08;100.00;98630.02;110295;1244;59683;-77
2022/10/06 05:45:17;;;;;;;18.50;13.10;;;;;;;4.22;100.00;98629.66;110441;1244;70950;-77
2022/10/06 05:47:46;;;;;;;20.60;15.50;;;;;;;4.38;100.00;98632.66;110575;1244;69351;-76
2022/10/06 05:50:14;;;;;;;23.10;16.60;;;;;;;4.50;100.00;98633.52;110408;1244;68344;-77
2022/10/06 05:52:41;;;;;;;22.00;15.30;;;;;;;4.63;99.51;98639.70;110317;1245;59722;-77
2022/10/06 05:55:09;;;;;;;18.40;13.30;;;;;;;4.79;98.93;98641.98;110327;1244;60149;-78
2022/10/06 05:57:36;;;;;;;19.30;11.90;;;;;;;5.00;99.15;98641.35;110255;1244;71519;-78
2022/10/06 06:00:05;;;;;;;13.20;10.70;;;;;;;5.25;97.88;98647.84;110346;1244;68457;-77
2022/10/06 06:02:39;;;;;;;16.00;11.20;;;;;;;5.56;96.68;98652.85;110548;1247;68514;-78
2022/10/06 06:05:08;;;;;;;13.70;10.10;;;;;;;5.89;96.82;98649.52;110381;1244;59750;-78
2022/10/06 06:07:35;;;;;;;11.50;9.40;;;;;;;6.21;94.24;98651.38;110449;1246;59694;-80
2022/10/06 06:10:03;;;;;;;9.20;7.00;;;;;;;6.49;93.43;98654.88;110463;1244;71636;-80
2022/10/06 06:12:31;;;;;;;8.00;6.20;;;;;;;6.79;92.34;98653.94;110811;1244;68861;-80
2022/10/06 06:18:05;;;;;;;12.50;9.10;;;;;;;7.45;89.95;98659.50;110842;1244;60070;-79
2022/10/06 06:20:32;;;;;;;10.80;9.00;;;;;;;7.66;87.84;98656.74;110412;1247;59749;-77
2022/10/06 06:23:00;;;;;;;11.50;9.60;;;;;;;7.79;87.19;98657.58;110485;1244;70882;-77
2022/10/06 06:25:28;;;;;;;16.20;12.10;;;;;;;8.06;88.40;98663.55;110674;1244;69432;-78
2022/10/06 06:27:55;;;;;;;12.10;10.40;;;;;;;8.29;85.74;98664.48;110577;1247;68505;-78
2022/10/06 06:30:24;;;;;;;16.20;10.80;;;;;;;8.52;83.82;98665.92;110305;1245;59803;-79
2022/10/06 06:32:56;;;;;;;19.40;11.70;;;;;;;8.71;81.28;98668.35;110556;1244;59710;-79
2022/10/06 06:35:24;;;;;;;27.00;16.40;;;;;;;8.71;80.49;98671.69;110240;1244;72021;-80
2022/10/06 06:37:52;;;;;;;25.60;17.10;;;;;;;8.69;79.71;98670.58;110453;1245;69957;-76
2022/10/06 06:40:20;;;;;;;13.90;10.70;;;;;;;8.94;79.51;98672.72;110302;1244;69396;-77
2022/10/06 06:42:49;;;;;;;16.10;12.10;;;;;;;9.04;78.82;98672.23;110551;1244;59738;-77
2022/10/06 06:46:04;;;;;;;14.00;10.40;;;;;;;9.37;77.35;98672.07;110532;1245;59686;-76
2022/10/06 06:48:52;;;;;;;13.20;9.20;;;;;;;9.57;77.48;98672.49;110601;1244;71508;-78
2022/10/06 06:51:24;;;;;;;12.60;8.70;;;;;;;10.15;77.78;98671.01;110209;1247;69801;-78
2022/10/06 06:53:52;;;;;;;9.40;7.30;;;;;;;10.44;75.98;98667.98;110376;1244;69401;-78
2022/10/06 06:56:20;;;;;;;11.20;7.30;;;;;;;10.70;76.49;98669.38;110386;1244;59711;-77
2022/10/06 06:58:49;;;;;;;8.10;6.20;;;;;;;10.95;75.09;98670.48;110293;1246;59773;-76
2022/10/06 07:01:21;;;;;;;6.70;5.90;;;;;;;11.25;75.80;98671.80;110334;1245;71501;-77
2022/10/06 07:03:54;;;;;;;7.00;6.20;;;;;;;11.44;71.66;98664.27;110368;1244;69349;-77
2022/10/06 07:06:30;;;;;;;6.40;5.60;;;;;;;11.61;70.29;98661.40;110311;1244;70013;-77
2022/10/06 07:09:00;;;;;;;7.10;6.30;;;;;;;11.71;68.99;98665.73;110420;1244;59731;-77
2022/10/06 07:11:30;;;;;;;8.60;6.20;;;;;;;11.59;68.44;98660.80;110582;1244;59684;-77
2022/10/06 07:14:07;;;;;;;6.30;5.60;;;;;;;11.74;68.38;98659.77;110442;1245;71431;-77
2022/10/06 07:25:12;;;;;;;7.70;5.30;;;;;;;12.74;64.85;98659.59;110398;1244;60116;-77
2022/10/06 07:27:51;;;;;;;7.80;5.00;;;;;;;12.86;65.35;98660.27;110555;1244;70842;-76
2022/10/06 07:30:29;;;;;;;8.00;5.70;;;;;;;13.40;63.61;98665.28;110469;1244;68685;-76
2022/10/06 07:33:03;;;;;;;6.30;5.30;;;;;;;13.39;63.59;98659.34;110435;1244;69388;-76
2022/10/06 07:35:31;;;;;;;6.40;4.70;;;;;;;13.63;62.14;98658.48;110421;1244;59728;-77
2022/10/06 07:38:06;;;;;;;7.60;5.10;;;;;;;14.08;61.32;98651.69;110325;1246;59717;-78
2022/10/06 07:40:38;;;;;;;6.10;4.50;;;;;;;14.53;60.08;98650.54;110383;1245;70700;-78
2022/10/06 07:43:23;;;;;;;6.10;4.90;;;;;;;14.77;59.08;98650.41;110446;1247;69393;-75
2022/10/06 07:45:51;;;;;;;6.40;4.40;;;;;;;15.14;58.38;98649.06;110105;1247;70064;-75
2022/10/06 07:48:39;;;;;;;6.90;4.20;;;;;;;15.32;57.69;98645.67;110458;1244;59668;-74
2022/10/06 07:51:18;;;;;;;4.50;4.10;;;;;;;15.59;56.91;98645.06;110436;1244;59674;-77
2022/10/06 07:53:49;;;;;;;4.90;4.10;;;;;;;16.28;56.95;98645.94;110275;1245;71796;-75
2022/10/06 07:56:23;;;;;;;4.80;3.50;;;;;;;16.88;56.00;98648.86;110349;1244;68484;-76
2022/10/06 07:58:55;;;;;;;5.10;3.80;;;;;;;17.02;52.54;98647.00;110375;1246;68625;-77
2022/10/06 08:01:24;;;;;;;3.70;3.30;;;;;;;17.21;52.81;98648.80;110142;1246;59763;-75
2022/10/06 08:03:52;;;;;;;4.80;3.90;;;;;;;17.40;50.93;98646.25;110353;1244;59610;-77
2022/10/06 08:06:19;;;;;;;5.70;4.30;;;;;;;17.07;50.79;98642.52;110358;1244;69955;-74
2022/10/06 08:08:47;;;;;;;5.20;3.80;;;;;;;16.78;50.97;98639.36;110360;1244;68176;-75
2022/10/06 08:11:21;;;;;;;5.40;3.60;;;;;;;17.19;51.37;98642.17;110335;1247;69330;-78
2022/10/06 08:13:50;;;;;;;;;;;;;;;17.77;50.47;98638.45;110505;1246;59758;-76
2022/10/06 08:16:21;;;;;;;5.00;3.80;;;;;;;17.84;49.25;98630.83;110477;1244;59686;-77
2022/10/06 08:18:53;;;;;;;4.20;3.50;;;;;;;18.60;48.18;98630.05;110633;1245;70573;-77
2022/10/06 08:21:24;;;;;;;5.70;4.00;;;;;;;19.00;47.35;98626.70;110435;1244;69858;-78
2022/10/06 08:23:53;;;;;;;4.50;3.00;;;;;;;19.30;46.51;98629.75;110374;1244;69669;-79
2022/10/06 08:26:22;;;;;;;5.70;4.00;;;;;;;20.13;46.56;98626.03;110949;1244;59673;-78
2022/10/06 08:28:52;;;;;;;4.10;3.60;;;;;;;20.21;43.98;98624.60;110623;1244;60110;-79
2022/10/06 08:31:22;;;;;;;4.50;3.40;;;;;;;20.44;43.11;98624.41;110723;1244;72050;-76
2022/10/06 08:33:55;;;;;;;5.00;3.60;;;;;;;20.70;44.91;98625.81;110690;1244;67713;-78
2022/10/06 08:36:25;;;;;;;4.00;2.60;;;;;;;21.16;41.30;98622.13;110561;1244;68557;-75
2022/10/06 08:38:58;;;;;;;4.80;3.00;;;;;;;21.74;42.96;98620.90;110306;1244;59702;-77
2022/10/06 08:41:39;;;;;;;5.50;3.40;;;;;;;22.05;41.01;98619.34;110501;1244;59755;-75
2022/10/06 08:44:18;;;;;;;4.40;3.50;;;;;;;22.53;39.49;98616.31;110531;1244;70716;-75
2022/10/06 08:46:51;;;;;;;4.40;3.40;;;;;;;22.90;39.92;98617.45;110402;1244;68633;-74
2022/10/06 08:49:25;;;;;;;4.70;3.40;;;;;;;22.11;38.33;98614.69;110418;1244;69900;-76
2022/10/06 08:52:14;;;;;;;4.50;3.10;;;;;;;21.53;40.47;98616.44;110450;1245;59689;-76
2022/10/06 08:54:57;;;;;;;4.20;3.30;;;;;;;22.19;40.45;98615.25;110374;1244;59662;-76
2022/10/06 08:57:40;;;;;;;5.40;3.50;;;;;;;22.61;37.75;98613.52;110321;1246;70677;-77
2022/10/06 09:00:13;;;;;;;5.00;3.50;;;;;;;22.53;38.24;98614.09;110269;1247;68711;-76
2022/10/06 09:02:49;;;;;;;3.50;2.80;;;;;;;22.23;37.98;98617.53;110323;1247;69421;-75
2022/10/06 09:05:25;;;;;;;4.50;3.70;;;;;;;22.45;38.04;98616.95;110275;1246;59747;-75
2022/10/06 09:08:36;;;;;;;4.40;3.50;;;;;;;22.92;38.44;98619.39;110210;1246;59674;-76
2022/10/06 09:11:23;;;;;;;5.60;4.50;;;;;;;22.84;37.31;98614.63;109784;1247;70676;-75
2022/10/06 09:14:01;;;;;;;6.60;4.80;;;;;;;22.15;38.18;98611.47;110207;1247;68579;-76
2022/10/06 09:16:35;;;;;;;4.50;4.00;;;;;;;21.26;39.39;98610.69;110386;1245;70059;-76
2022/10/06 09:19:19;;;;;;;5.40;4.60;;;;;;;20.50;41.46;98604.41;110528;1246;59763;-77
2022/10/06 09:21:52;;;;;;;9.20;5.30;;;;;;;20.17;42.30;98600.44;110623;1246;59619;-75
2022/10/06 09:24:33;;;;;;;7.00;5.60;;;;;;;21.06;41.14;98602.56;110416;1246;72184;-75
2022/10/06 09:27:22;;;;;;;6.00;4.30;;;;;;;20.90;40.95;98601.79;110333;1245;68638;-76
2022/10/06 09:29:50;;;;;;;7.60;5.40;;;;;;;21.57;40.28;98600.73;110402;1246;68594;-75
2022/10/06 09:32:21;;;;;;;6.60;5.20;;;;;;;22.27;39.35;98596.34;110918;1245;59624;-75
2022/10/06 09:34:50;;;;;;;6.00;5.20;;;;;;;22.50;37.42;98596.18;110451;1245;59817;-77
2022/10/06 09:37:18;;;;;;;7.30;5.00;;;;;;;22.51;36.97;98597.25;110584;1246;71571;-77
2022/10/06 09:39:49;;;;;;;4.60;4.20;;;;;;;23.00;36.97;98593.46;110497;1245;68974;-76
2022/10/06 09:42:34;;;;;;;4.90;4.30;;;;;;;23.33;36.18;98594.15;110395;1245;68624;-75
2022/10/06 09:45:06;;;;;;;4.50;3.60;;;;;;;22.54;35.15;98592.54;110389;1246;59747;-75
2022/10/06 09:47:38;;;;;;;6.30;3.40;;;;;;;22.63;36.15;98593.52;110432;1246;59731;-75
2022/10/06 09:50:11;;;;;;;3.30;2.50;;;;;;;22.06;35.36;98589.70;110281;1245;70759;-74
2022/10/06 09:53:03;;;;;;;2.70;2.10;;;;;;;20.93;35.53;98591.71;110369;1246;68860;-74
2022/10/06 09:55:44;;;;;;;2.30;2.00;;;;;;;21.26;35.77;98586.60;110304;1246;69113;-74
2022/10/06 09:58:30;;;;;;;2.70;1.50;;;;;;;22.48;34.57;98581.39;110336;1246;59757;-77
2022/10/06 10:01:10;;;;;;;2.80;1.70;;;;;;;23.34;32.73;98579.88;110423;1245;59746;-75
2022/10/06 10:03:54;;;;;;;3.10;2.10;;;;;;;23.39;31.73;98577.16;110405;1246;71407;-75
2022/10/06 10:06:41;;;;;;;4.90;3.00;;;;;;;23.50;31.66;98576.47;110271;1246;68564;-75
2022/10/06 10:09:13;;;;;;;3.30;2.70;;;;;;;24.45;32.42;98576.29;110351;1245;68400;-75
2022/10/06 10:14:44;;;;;;;3.20;2.40;;;;;;;23.44;31.03;98578.37;110189;1246;59694;-75
2022/10/06 10:17:19;;;;;;;2.80;2.00;;;;;;;23.48;32.05;98574.66;110236;1246;71504;-74
2022/10/06 10:19:52;;;;;;;5.40;3.50;;;;;;;23.04;33.11;98571.55;110456;1246;69753;-73
2022/10/06 10:22:29;;;;;;;5.30;3.00;;;;;;;22.62;33.53;98574.13;110395;1246;69291;-74
2022/10/06 10:25:06;;;;;;;4.50;2.90;;;;;;;22.45;34.26;98569.98;110293;1246;59712;-74
2022/10/06 10:27:48;;;;;;;4.00;2.10;;;;;;;23.23;34.78;98566.35;110481;1246;59691;-75
2022/10/06 10:30:16;;;;;;;4.30;2.30;;;;;;;24.31;32.87;98563.58;110370;1246;71510;-75
2022/10/06 10:33:13;;;;;;;3.90;2.50;;;;;;;24.56;31.02;98558.70;110455;1246;69662;-75
2022/10/06 10:35:49;;;;;;;2.70;2.10;;;;;;;25.27;31.88;98556.41;110553;1246;69501;-75
2022/10/06 10:38:21;;;;;;;3.10;2.40;;;;;;;25.24;31.09;98557.35;110745;1245;59674;-75
2022/10/06 10:41:01;;;;;;;3.60;2.70;;;;;;;25.83;31.01;98556.92;110525;1244;59621;-76
2022/10/06 10:43:45;;;;;;;3.30;2.50;;;;;;;26.29;31.03;98548.71;110438;1244;70777;-75
2022/10/06 10:46:45;;;;;;;4.90;3.10;;;;;;;26.54;29.11;98549.86;110289;1245;69350;-76
2022/10/06 10:49:19;;;;;;;3.80;3.10;;;;;;;26.25;30.53;98548.29;110340;1244;69345;-74
2022/10/06 10:51:49;;;;;;;5.10;3.30;;;;;;;26.20;30.87;98549.47;110543;1244;59739;-76
2022/10/06 10:54:29;;;;;;;4.00;3.30;;;;;;;25.90;30.83;98546.38;110566;1244;59756;-76
2022/10/06 10:56:57;;;;;;;6.70;3.80;;;;;;;25.55;31.72;98542.81;110424;1244;70745;-76
2022/10/06 10:59:34;;;;;;;3.10;2.80;;;;;;;25.56;31.69;98542.36;110467;1244;68641;-75
2022/10/06 11:02:21;;;;;;;3.20;2.60;;;;;;;26.38;30.47;98536.23;110513;1244;68686;-75
2022/10/06 11:05:02;;;;;;;4.00;2.50;;;;;;;25.94;30.13;98536.94;110360;1244;59693;-75
2022/10/06 11:07:43;;;;;;;4.30;3.20;;;;;;;26.72;29.48;98534.40;110334;1244;59681;-74
2022/10/06 11:10:25;;;;;;;3.70;2.40;;;;;;;27.17;29.27;98527.48;110301;1242;70750;-76
2022/10/06 11:13:23;;;;;;;3.70;2.00;;;;;;;27.72;28.98;98524.32;110375;1244;68583;-75
2022/10/06 11:16:40;;;;;;;3.30;2.80;;;;;;;27.08;29.25;98526.98;110572;1244;68806;-74
2022/10/06 11:19:26;;;;;;;3.60;2.70;;;;;;;27.53;28.55;98519.02;110187;1244;59711;-75
2022/10/06 11:22:01;;;;;;;3.10;2.00;;;;;;;27.15;29.26;98518.94;110495;1244;59703;-74
2022/10/06 11:24:30;;;;;;;3.50;2.10;;;;;;;27.20;28.97;98515.34;110283;1244;71716;-74
2022/10/06 11:27:26;;;;;;;2.80;1.70;;;;;;;27.15;28.11;98517.57;110308;1244;68451;-75
2022/10/06 11:30:05;;;;;;;3.30;2.30;;;;;;;27.09;27.06;98513.06;110460;1244;70030;-76
2022/10/06 11:32:44;;;;;;;3.90;2.60;;;;;;;27.10;27.72;98507.80;110569;1244;59769;-76
2022/10/06 11:35:17;;;;;;;;;;;;;;;27.05;28.71;98509.33;110305;1244;59703;-75
2022/10/06 11:38:01;;;;;;;3.60;2.40;;;;;;;26.60;29.03;98505.12;110406;1244;71795;-76
2022/10/06 11:40:46;;;;;;;2.60;1.70;;;;;;;27.33;28.29;98506.35;110922;1244;68599;-76
2022/10/06 11:43:22;;;;;;;3.10;1.90;;;;;;;27.81;27.54;98504.09;110596;1244;70087;-77
2022/10/06 11:46:20;;;;;;;3.20;2.60;;;;;;;28.13;26.79;98503.72;110454;1244;59808;-77
2022/10/06 11:48:47;;;;;;;;;;;;;;;26.93;28.02;98502.55;110288;1244;59671;-77
2022/10/06 11:51:23;;;;;;;2.80;2.50;;;;;;;26.42;28.74;98502.48;110516;1244;71139;-77
2022/10/06 11:53:58;;;;;;;4.60;2.90;;;;;;;26.59;28.60;98497.92;110456;1244;69721;-74
2022/10/06 11:56:38;;;;;;;4.80;4.10;;;;;;;26.17;30.22;98495.98;110251;1244;69251;-76
2022/10/06 11:59:31;;;;;;;5.30;3.90;;;;;;;25.78;30.66;98494.59;110483;1244;59671;-76
2022/10/06 12:01:59;;;;;;;4.10;2.80;;;;;;;25.06;32.49;98491.86;110364;1244;59624;-76
2022/10/06 12:04:27;;;;;;;3.30;2.80;;;;;;;26.04;30.94;98491.89;110322;1244;71591;-76
2022/10/06 12:06:56;;;;;;;2.90;2.20;;;;;;;26.12;30.66;98490.16;110496;1244;69805;-76